Vunisea, Fiji
Current Conditions -  °F | °C
As of 12:00 AM on Saturday 22 Nov 2014 (Local Time) from NFNA Reporting Station
Broken Clouds Broken Clouds  
Wind Chill: 26°   Ceiling: 2000
Heat Index: 28°   Visibility: 6mi
Dew Point: 24°   Wind: 9mph
Humidity: 89%   Direction: 100°E
Pressure: 29.91"   Gusts: NA
Location:  19.05°S, 178.17°E
Report Text: NFNA 211200Z 10008KT 9999 BKN020 BKN048 26/24 Q1013
Loading
Personal Weather Stations






























Interactive Weather Map New forecast layout! Learn more

10-Day Weather Forecast

Advertisements
Track Severe Weather on mobile